createdAt,value
2023-07-04T00:00:48.394Z,41.23
2023-07-04T00:01:48.435Z,41.14
2023-07-04T00:02:48.437Z,41.13
2023-07-04T00:03:48.456Z,41.07
2023-07-04T00:04:48.393Z,41.04
2023-07-04T00:05:48.418Z,41.02
2023-07-04T00:06:48.418Z,41.01
2023-07-04T00:07:48.539Z,41.03
2023-07-04T00:08:48.409Z,41.01
2023-07-04T00:09:48.411Z,40.98
2023-07-04T00:10:48.417Z,40.99
2023-07-04T00:11:48.439Z,40.97
2023-07-04T00:12:48.477Z,40.98
2023-07-04T00:13:48.579Z,40.97
2023-07-04T00:14:48.489Z,40.99
2023-07-04T00:15:48.482Z,41.01
2023-07-04T00:16:48.537Z,40.99
2023-07-04T00:17:48.586Z,40.98
2023-07-04T00:18:48.519Z,40.98
2023-07-04T00:19:48.535Z,40.98
2023-07-04T00:20:48.558Z,40.99
2023-07-04T00:21:48.564Z,40.99
2023-07-04T00:22:48.618Z,40.97
2023-07-04T00:23:48.661Z,40.96
2023-07-04T00:24:48.628Z,40.97
2023-07-04T00:25:48.620Z,40.96
2023-07-04T00:26:48.644Z,40.99
2023-07-04T00:27:48.653Z,40.96
2023-07-04T00:28:48.690Z,40.95
2023-07-04T00:29:48.705Z,40.99
2023-07-04T00:30:48.712Z,40.99
2023-07-04T00:31:48.713Z,40.97
2023-07-04T00:32:48.753Z,41.00
2023-07-04T00:33:48.750Z,41.01
2023-07-04T00:34:48.780Z,40.99
2023-07-04T00:35:48.847Z,40.96
2023-07-04T00:36:48.802Z,40.96
2023-07-04T00:37:48.817Z,41.00
2023-07-04T00:38:48.828Z,41.00
2023-07-04T00:39:48.843Z,40.99
2023-07-04T00:40:48.865Z,40.98
2023-07-04T00:41:48.861Z,40.99
2023-07-04T00:42:48.875Z,40.96
2023-07-04T00:43:48.897Z,40.97
2023-07-04T00:44:48.916Z,40.99
2023-07-04T00:45:48.949Z,40.99
2023-07-04T00:46:49.005Z,41.00
2023-07-04T00:47:48.980Z,40.99
2023-07-04T00:48:48.973Z,41.01
2023-07-04T00:49:48.984Z,40.98
2023-07-04T00:50:49.024Z,41.00
2023-07-04T00:51:49.020Z,40.99
2023-07-04T00:52:49.029Z,40.98
2023-07-04T00:53:49.054Z,40.99
2023-07-04T00:54:49.063Z,40.99
2023-07-04T00:55:49.075Z,40.98
2023-07-04T00:56:49.097Z,40.97
2023-07-04T00:57:49.125Z,40.98
2023-07-04T00:58:49.139Z,40.99
2023-07-04T00:59:49.164Z,41.02
2023-07-04T01:00:49.325Z,41.00
2023-07-04T01:01:49.235Z,40.97
2023-07-04T01:02:49.278Z,40.99
2023-07-04T01:03:49.258Z,41.00
2023-07-04T01:04:49.255Z,41.01
2023-07-04T01:05:49.251Z,41.00
2023-07-04T01:06:49.265Z,41.00
2023-07-04T01:07:49.292Z,41.03
2023-07-04T01:08:49.303Z,41.01
2023-07-04T01:09:49.393Z,40.98
2023-07-04T01:10:49.419Z,41.00
2023-07-04T01:11:49.366Z,40.99
2023-07-04T01:12:49.390Z,40.99
2023-07-04T01:13:49.456Z,40.99
2023-07-04T01:14:49.427Z,40.98
2023-07-04T01:15:49.483Z,41.01
2023-07-04T01:16:49.484Z,40.97
2023-07-04T01:17:49.564Z,40.98
2023-07-04T01:18:49.521Z,40.98
2023-07-04T01:19:49.541Z,41.02
2023-07-04T01:20:49.669Z,41.01
2023-07-04T01:21:49.594Z,41.01
2023-07-04T01:22:49.611Z,41.00
2023-07-04T01:23:49.643Z,40.99
2023-07-04T01:24:49.657Z,40.99
2023-07-04T01:25:49.680Z,41.01
2023-07-04T01:26:49.713Z,40.99
2023-07-04T01:27:49.763Z,41.00
2023-07-04T01:28:49.764Z,41.02
2023-07-04T01:29:49.794Z,41.00
2023-07-04T01:30:49.923Z,41.00
2023-07-04T01:31:49.869Z,41.00
2023-07-04T01:32:49.933Z,41.00
2023-07-04T01:33:49.904Z,40.99
2023-07-04T01:34:49.905Z,41.01
2023-07-04T01:35:49.942Z,41.02
2023-07-04T01:36:49.968Z,41.01
2023-07-04T01:37:50.000Z,40.98
2023-07-04T01:38:50.035Z,41.02
2023-07-04T01:39:50.061Z,41.01
2023-07-04T01:40:50.177Z,40.99
2023-07-04T01:41:50.122Z,40.98
2023-07-04T01:42:50.156Z,41.00
2023-07-04T01:43:50.185Z,40.99
2023-07-04T01:44:50.205Z,41.02
2023-07-04T01:45:50.245Z,41.00
2023-07-04T01:46:50.273Z,41.01
2023-07-04T01:47:50.327Z,40.98
2023-07-04T01:48:50.326Z,41.00
2023-07-04T01:49:50.376Z,40.99
2023-07-04T01:50:50.581Z,40.99
2023-07-04T01:51:50.411Z,41.00
2023-07-04T01:52:50.447Z,41.00
2023-07-04T01:53:50.487Z,41.02
2023-07-04T01:54:50.528Z,40.99
2023-07-04T01:55:50.543Z,40.99
2023-07-04T01:56:50.578Z,41.01
2023-07-04T01:57:50.606Z,40.97
2023-07-04T01:58:50.635Z,40.99
2023-07-04T01:59:50.660Z,40.99
2023-07-04T02:00:50.926Z,40.99
2023-07-04T02:01:50.755Z,41.00
2023-07-04T02:02:50.775Z,41.01
2023-07-04T02:03:50.808Z,40.98
2023-07-04T02:04:50.800Z,41.00
2023-07-04T02:05:50.858Z,40.99
2023-07-04T02:06:50.862Z,41.00
2023-07-04T02:07:50.905Z,40.99
2023-07-04T02:08:50.925Z,41.02
2023-07-04T02:09:50.947Z,40.99
2023-07-04T02:10:51.330Z,40.98
2023-07-04T02:11:51.023Z,41.00
2023-07-04T02:12:51.056Z,41.00
2023-07-04T02:13:51.140Z,41.00
2023-07-04T02:14:51.126Z,41.00
2023-07-04T02:15:51.271Z,40.98
2023-07-04T02:16:51.288Z,41.00
2023-07-04T02:17:51.268Z,40.99
2023-07-04T02:18:51.251Z,40.99
2023-07-04T02:19:51.300Z,41.00
2023-07-04T02:20:51.631Z,40.99
2023-07-04T02:21:51.377Z,41.01
2023-07-04T02:22:51.416Z,40.99
2023-07-04T02:23:51.417Z,40.97
2023-07-04T02:24:51.451Z,40.99
2023-07-04T02:25:51.495Z,40.98
2023-07-04T02:26:51.556Z,40.98
2023-07-04T02:27:51.572Z,40.98
2023-07-04T02:28:51.615Z,40.99
2023-07-04T02:29:51.659Z,41.02
2023-07-04T02:30:51.948Z,41.00
2023-07-04T02:31:51.751Z,40.99
2023-07-04T02:32:51.770Z,41.02
2023-07-04T02:33:51.798Z,41.00
2023-07-04T02:34:51.831Z,40.99
2023-07-04T02:35:51.870Z,41.00
2023-07-04T02:36:51.895Z,40.98
2023-07-04T02:37:51.977Z,41.04
2023-07-04T02:38:51.966Z,41.02
2023-07-04T02:39:51.999Z,41.00
2023-07-04T02:40:52.321Z,41.00
2023-07-04T02:41:52.057Z,40.99
2023-07-04T02:42:52.090Z,40.99
2023-07-04T02:43:52.133Z,41.00
2023-07-04T02:44:52.173Z,41.01
2023-07-04T02:45:52.208Z,41.01
2023-07-04T02:46:52.299Z,41.00
2023-07-04T02:47:52.289Z,40.99
2023-07-04T02:48:52.299Z,40.98
2023-07-04T02:49:52.341Z,41.02
2023-07-04T02:50:52.757Z,41.01
2023-07-04T02:51:53.373Z,41.01
2023-07-04T02:52:52.443Z,41.01
2023-07-04T02:53:52.504Z,41.01
2023-07-04T02:54:52.508Z,40.98
2023-07-04T02:55:52.538Z,41.00
2023-07-04T02:56:52.575Z,40.97
2023-07-04T02:57:52.613Z,40.97
2023-07-04T02:58:52.654Z,40.99
2023-07-04T02:59:52.697Z,41.01
2023-07-04T03:00:52.905Z,41.00
2023-07-04T03:01:52.761Z,40.97
2023-07-04T03:02:52.994Z,40.96
2023-07-04T03:03:52.983Z,41.02
2023-07-04T03:04:53.360Z,41.00
2023-07-04T03:05:52.899Z,41.00
2023-07-04T03:06:52.941Z,41.00
2023-07-04T03:07:52.982Z,41.02
2023-07-04T03:08:53.031Z,41.02
2023-07-04T03:09:53.095Z,41.02
2023-07-04T03:10:53.387Z,41.01
2023-07-04T03:11:53.122Z,41.00
2023-07-04T03:12:53.170Z,40.99
2023-07-04T03:13:53.261Z,41.01
2023-07-04T03:14:53.243Z,41.00
2023-07-04T03:15:53.303Z,41.00
2023-07-04T03:16:53.399Z,41.01
2023-07-04T03:17:53.449Z,41.00
2023-07-04T03:18:53.447Z,41.00
2023-07-04T03:19:53.441Z,41.00
2023-07-04T03:20:53.936Z,41.02
2023-07-04T03:21:53.542Z,41.01
2023-07-04T03:22:53.564Z,41.00
2023-07-04T03:23:53.600Z,41.00
2023-07-04T03:24:53.619Z,41.02
2023-07-04T03:25:53.688Z,41.04
2023-07-04T03:26:53.720Z,41.00
2023-07-04T03:27:53.747Z,41.02
2023-07-04T03:28:53.798Z,41.02
2023-07-04T03:29:53.840Z,41.01
2023-07-04T03:30:54.424Z,41.02
2023-07-04T03:31:53.915Z,41.00
2023-07-04T03:32:53.984Z,41.01
2023-07-04T03:33:54.007Z,41.02
2023-07-04T03:34:54.042Z,41.02
2023-07-04T03:35:59.334Z,41.01
2023-07-04T03:36:54.076Z,41.03
2023-07-04T03:37:54.075Z,41.02
2023-07-04T03:38:54.059Z,41.01
2023-07-04T03:39:54.058Z,41.01
2023-07-04T03:40:54.653Z,41.01
2023-07-04T03:41:54.070Z,41.02
2023-07-04T03:42:54.048Z,41.02
2023-07-04T03:43:54.025Z,41.02
2023-07-04T03:44:54.017Z,41.02
2023-07-04T03:45:54.003Z,41.03
2023-07-04T03:46:54.004Z,40.99
2023-07-04T03:47:54.101Z,41.00
2023-07-04T03:50:02.638Z,41.03
2023-07-04T03:51:03.620Z,41.02
2023-07-04T03:52:03.612Z,41.02
2023-07-04T03:53:03.619Z,41.01
2023-07-04T03:54:03.641Z,41.01
2023-07-04T03:55:03.582Z,41.00
2023-07-04T03:56:03.583Z,41.00
2023-07-04T03:57:03.606Z,41.02
2023-07-04T03:58:03.580Z,41.01
2023-07-04T03:59:03.569Z,41.02
2023-07-04T04:00:03.553Z,41.02
2023-07-04T04:01:03.562Z,41.03
2023-07-04T04:02:03.545Z,41.00
2023-07-04T04:03:03.742Z,40.99
2023-07-04T04:04:03.725Z,41.03
2023-07-04T04:05:03.611Z,41.02
2023-07-04T04:06:03.517Z,41.02
2023-07-04T04:07:03.517Z,40.99
2023-07-04T04:08:03.506Z,41.00
2023-07-04T04:09:03.497Z,41.03
2023-07-04T04:10:03.491Z,41.01
2023-07-04T04:11:03.483Z,41.02
2023-07-04T04:12:03.472Z,41.01
2023-07-04T04:13:03.499Z,41.00
2023-07-04T04:14:03.478Z,40.99
2023-07-04T04:15:03.441Z,41.00
2023-07-04T04:16:03.567Z,41.00
2023-07-04T04:17:03.437Z,41.00
2023-07-04T04:18:03.474Z,41.03
2023-07-04T04:19:03.421Z,41.00
2023-07-04T04:20:03.409Z,40.99
2023-07-04T04:21:03.398Z,41.01
2023-07-04T04:22:03.395Z,41.00
2023-07-04T04:23:03.414Z,41.00
2023-07-04T04:24:03.468Z,41.00
2023-07-04T04:25:03.504Z,41.01
2023-07-04T04:26:03.540Z,40.98
2023-07-04T04:27:03.601Z,40.99
2023-07-04T04:28:03.620Z,41.00
2023-07-04T04:29:03.699Z,40.99
2023-07-04T04:30:04.763Z,40.99
2023-07-04T04:31:03.820Z,40.99
2023-07-04T04:32:03.787Z,40.99
2023-07-04T04:33:03.893Z,41.00
2023-07-04T04:34:03.880Z,40.98
2023-07-04T04:35:03.905Z,40.99
2023-07-04T04:36:03.947Z,40.97
2023-07-04T04:37:03.987Z,40.98
2023-07-04T04:38:04.033Z,40.98
2023-07-04T04:39:04.061Z,40.96
2023-07-04T04:40:04.115Z,41.00
2023-07-04T04:41:04.147Z,40.98
2023-07-04T04:42:04.196Z,40.97
2023-07-04T04:43:04.228Z,40.97
2023-07-04T04:44:04.314Z,40.99
2023-07-04T04:45:04.328Z,40.94
2023-07-04T04:46:04.489Z,40.97
2023-07-04T04:47:04.385Z,40.97
2023-07-04T04:48:04.438Z,40.95
2023-07-04T04:49:04.539Z,40.97
2023-07-04T04:50:04.507Z,40.95
2023-07-04T04:51:04.557Z,40.95
2023-07-04T04:52:04.598Z,40.95
2023-07-04T04:53:04.651Z,40.97
2023-07-04T04:54:04.664Z,40.97
2023-07-04T04:55:04.726Z,40.96
2023-07-04T04:56:04.766Z,40.96
2023-07-04T04:57:04.797Z,40.96
2023-07-04T04:58:04.826Z,40.97
2023-07-04T04:59:04.880Z,40.96
2023-07-04T05:00:04.902Z,40.97
2023-07-04T05:01:04.955Z,40.96
2023-07-04T05:02:05.103Z,40.95
2023-07-04T05:03:05.031Z,40.97
2023-07-04T05:04:05.095Z,40.95
2023-07-04T05:05:05.099Z,40.96
2023-07-04T05:06:05.151Z,40.98
2023-07-04T05:07:05.180Z,40.96
2023-07-04T05:08:05.225Z,40.94
2023-07-04T05:09:05.258Z,40.96
2023-07-04T05:10:05.338Z,40.97
2023-07-04T05:11:05.345Z,40.93
2023-07-04T05:12:05.371Z,40.98
2023-07-04T05:13:05.413Z,40.94
2023-07-04T05:14:05.460Z,40.96
2023-07-04T05:15:06.397Z,40.96
2023-07-04T05:16:05.566Z,40.96
2023-07-04T05:17:05.586Z,40.95
2023-07-04T05:18:05.646Z,40.95
2023-07-04T05:19:05.656Z,40.91
2023-07-04T05:20:05.723Z,40.94
2023-07-04T05:21:05.740Z,40.94
2023-07-04T05:22:05.776Z,40.93
2023-07-04T05:23:05.826Z,40.95
2023-07-04T05:24:05.861Z,40.94
2023-07-04T05:25:05.919Z,40.94
2023-07-04T05:26:05.950Z,40.94
2023-07-04T05:27:05.999Z,40.95
2023-07-04T05:28:06.049Z,40.91
2023-07-04T05:29:06.089Z,40.92
2023-07-04T05:30:06.121Z,40.95
2023-07-04T05:31:06.168Z,40.96
2023-07-04T05:32:06.308Z,40.95
2023-07-04T05:33:06.291Z,40.94
2023-07-04T05:34:06.293Z,40.94
2023-07-04T05:35:06.363Z,40.93
2023-07-04T05:36:06.389Z,40.92
2023-07-04T05:37:06.426Z,40.95
2023-07-04T05:38:06.482Z,40.95
2023-07-04T05:39:06.528Z,40.94
2023-07-04T05:40:06.573Z,40.97
2023-07-04T05:41:06.605Z,40.92
2023-07-04T05:42:06.665Z,40.92
2023-07-04T05:43:06.845Z,40.92
2023-07-04T05:44:06.855Z,40.92
2023-07-04T05:45:06.792Z,40.93
2023-07-04T05:46:06.870Z,40.93
2023-07-04T05:47:06.888Z,40.91
2023-07-04T05:48:07.351Z,41.00
2023-07-04T05:49:07.015Z,40.96
2023-07-04T05:50:07.055Z,40.95
2023-07-04T05:51:07.391Z,40.95
2023-07-04T05:52:07.119Z,40.93
2023-07-04T05:53:07.171Z,40.93
2023-07-04T05:54:07.210Z,40.94
2023-07-04T05:55:07.249Z,40.92
2023-07-04T05:56:07.353Z,41.01
2023-07-04T05:57:07.332Z,40.99
2023-07-04T05:58:07.404Z,40.95
2023-07-04T05:59:07.404Z,41.10
2023-07-04T06:00:07.446Z,41.68
2023-07-04T06:01:07.866Z,41.71
2023-07-04T06:02:07.520Z,41.96
2023-07-04T06:03:07.716Z,42.01
2023-07-04T06:04:07.686Z,42.04
2023-07-04T06:05:07.702Z,42.38
2023-07-04T06:06:07.863Z,42.34
2023-07-04T06:07:07.674Z,42.42
2023-07-04T06:08:07.692Z,42.43
2023-07-04T06:09:07.915Z,42.48
2023-07-04T06:10:07.733Z,42.19
2023-07-04T06:11:07.749Z,42.03
2023-07-04T06:12:07.780Z,41.97
2023-07-04T06:13:07.811Z,41.94
2023-07-04T06:14:07.892Z,41.79
2023-07-04T06:15:08.365Z,41.76
2023-07-04T06:16:07.955Z,41.66
2023-07-04T06:17:08.094Z,41.61
2023-07-04T06:18:08.042Z,41.60
2023-07-04T06:19:08.365Z,41.59
2023-07-04T06:20:08.109Z,41.54
2023-07-04T06:21:08.179Z,41.54
2023-07-04T06:22:08.215Z,41.45
2023-07-04T06:23:08.273Z,41.41
2023-07-04T06:24:08.370Z,41.39
2023-07-04T06:25:08.415Z,41.39
2023-07-04T06:26:08.468Z,41.53
2023-07-04T06:27:08.520Z,41.49
2023-07-04T06:28:08.588Z,41.65
2023-07-04T06:29:08.661Z,41.53
2023-07-04T06:30:08.730Z,41.58
2023-07-04T06:31:08.899Z,41.59
2023-07-04T06:32:08.846Z,41.61
2023-07-04T06:33:08.940Z,41.57
2023-07-04T06:34:09.371Z,41.62
2023-07-04T06:35:09.039Z,41.83
2023-07-04T06:36:09.095Z,42.63
2023-07-04T06:37:09.175Z,43.13
2023-07-04T06:38:09.200Z,43.56
2023-07-04T06:39:09.400Z,43.59
2023-07-04T06:40:09.291Z,43.78
2023-07-04T06:41:09.341Z,43.82
2023-07-04T06:42:09.380Z,43.46
2023-07-04T06:43:09.424Z,43.34
2023-07-04T06:44:09.891Z,43.15
2023-07-04T06:45:09.500Z,43.02
2023-07-04T06:46:09.534Z,42.91
2023-07-04T06:47:09.615Z,42.79
2023-07-04T06:48:09.700Z,42.70
2023-07-04T06:49:09.658Z,42.78
2023-07-04T06:50:09.705Z,42.63
2023-07-04T06:51:09.708Z,42.52
2023-07-04T06:52:10.749Z,42.51
2023-07-04T06:53:09.809Z,42.44
2023-07-04T06:54:09.818Z,42.41
2023-07-04T06:55:09.855Z,42.40
2023-07-04T06:56:09.884Z,42.33
2023-07-04T06:57:09.933Z,42.33
2023-07-04T06:58:10.401Z,42.28
2023-07-04T06:59:09.993Z,42.26
2023-07-04T07:00:10.048Z,42.23
2023-07-04T07:01:10.073Z,42.25
2023-07-04T07:02:10.094Z,42.29
2023-07-04T07:03:10.273Z,42.31
2023-07-04T07:04:10.218Z,42.23
2023-07-04T07:05:10.196Z,42.19
2023-07-04T07:06:10.226Z,42.16
2023-07-04T07:07:10.252Z,42.23
2023-07-04T07:08:10.309Z,42.21
2023-07-04T07:09:10.334Z,42.14
2023-07-04T07:10:10.372Z,42.13
2023-07-04T07:11:10.887Z,42.14
2023-07-04T07:12:10.426Z,42.15
2023-07-04T07:13:10.456Z,41.99
2023-07-04T07:14:10.518Z,42.06
2023-07-04T07:15:10.544Z,42.00
2023-07-04T07:16:10.893Z,42.02
2023-07-04T07:17:10.665Z,41.96
2023-07-04T07:18:11.400Z,41.94
2023-07-04T07:19:13.084Z,42.00
2023-07-04T07:20:10.743Z,41.98
2023-07-04T07:21:10.719Z,41.99
2023-07-04T07:22:10.711Z,42.02
2023-07-04T07:23:10.705Z,42.04
2023-07-04T07:24:10.702Z,42.05
2023-07-04T07:25:10.727Z,42.06
2023-07-04T07:26:10.683Z,42.03
2023-07-04T07:27:10.693Z,42.04
2023-07-04T07:28:10.669Z,41.96
2023-07-04T07:29:10.891Z,41.85
2023-07-04T07:30:10.662Z,41.91
2023-07-04T07:31:10.867Z,41.87
2023-07-04T07:32:10.672Z,41.79
2023-07-04T07:33:10.717Z,41.88
2023-07-04T07:34:10.936Z,41.79
2023-07-04T07:35:10.785Z,41.85
2023-07-04T07:36:10.888Z,41.72
2023-07-04T07:37:10.880Z,41.82
2023-07-04T07:38:10.923Z,41.87
2023-07-04T07:39:11.089Z,41.85
2023-07-04T07:40:11.022Z,41.82
2023-07-04T07:41:11.103Z,41.87
2023-07-04T07:42:11.109Z,41.86
2023-07-04T07:43:11.123Z,41.96
2023-07-04T07:44:11.504Z,42.06
2023-07-04T07:45:11.100Z,42.07
2023-07-04T07:46:11.176Z,42.10
2023-07-04T07:47:11.401Z,42.12
2023-07-04T07:48:11.543Z,42.11
2023-07-04T07:49:11.137Z,42.11
2023-07-04T07:50:11.172Z,42.01
2023-07-04T07:51:11.400Z,42.06
2023-07-04T07:52:11.311Z,42.05
2023-07-04T07:53:11.371Z,42.63
2023-07-04T07:54:11.515Z,42.77
2023-07-04T07:55:11.528Z,42.47
2023-07-04T07:56:11.902Z,42.40
2023-07-04T07:57:11.640Z,42.53
2023-07-04T07:58:11.689Z,41.25
2023-07-04T07:59:11.690Z,41.56
2023-07-04T08:00:11.652Z,41.47
2023-07-04T08:01:11.696Z,41.38
2023-07-04T08:02:11.723Z,41.43
2023-07-04T08:03:11.891Z,41.37
2023-07-04T08:04:15.422Z,41.57
2023-07-04T08:05:11.796Z,41.53
2023-07-04T08:06:11.751Z,41.79
2023-07-04T08:07:11.730Z,41.67
2023-07-04T08:08:11.733Z,41.32
2023-07-04T08:09:11.824Z,41.53
2023-07-04T08:10:11.766Z,41.38
2023-07-04T08:11:11.810Z,41.47
2023-07-04T08:12:11.831Z,41.54
2023-07-04T08:13:11.930Z,41.31
2023-07-04T08:14:11.784Z,41.38
2023-07-04T08:15:11.715Z,41.47
2023-07-04T08:16:11.835Z,41.52
2023-07-04T08:17:11.918Z,41.33
2023-07-04T08:18:11.784Z,41.35
2023-07-04T08:19:11.842Z,41.45
2023-07-04T08:20:11.940Z,41.31
2023-07-04T08:21:11.828Z,41.15
2023-07-04T08:22:11.872Z,41.23
2023-07-04T08:23:11.913Z,41.33
2023-07-04T08:24:12.057Z,41.32
2023-07-04T08:25:11.937Z,41.41
2023-07-04T08:26:12.091Z,41.39
2023-07-04T08:27:12.015Z,41.29
2023-07-04T08:28:12.074Z,41.20
2023-07-04T08:29:12.434Z,41.09
2023-07-04T08:30:12.169Z,41.70
2023-07-04T08:31:12.239Z,41.57
2023-07-04T08:32:12.462Z,41.32
2023-07-04T08:33:12.366Z,41.46
2023-07-04T08:34:12.423Z,41.35
2023-07-04T08:35:13.457Z,41.37
2023-07-04T08:36:12.510Z,41.12
2023-07-04T08:37:12.571Z,41.28
2023-07-04T08:38:12.625Z,41.32
2023-07-04T08:39:12.926Z,41.46
2023-07-04T08:40:12.732Z,41.42
2023-07-04T08:41:12.929Z,41.55
2023-07-04T08:42:12.848Z,41.60
2023-07-04T08:43:12.888Z,41.65
2023-07-04T08:44:12.894Z,41.72
2023-07-04T08:45:12.924Z,41.83
2023-07-04T08:46:12.967Z,41.85
2023-07-04T08:47:12.914Z,41.87
2023-07-04T08:48:12.942Z,42.36
2023-07-04T08:49:12.958Z,43.42
2023-07-04T08:50:12.955Z,43.89
2023-07-04T08:51:13.014Z,44.38
2023-07-04T08:52:13.100Z,44.68
2023-07-04T08:53:13.101Z,44.07
2023-07-04T08:54:13.424Z,44.10
2023-07-04T08:55:13.141Z,43.39
2023-07-04T08:56:13.149Z,42.96
2023-07-04T08:57:13.181Z,42.92
2023-07-04T08:58:13.212Z,42.57
2023-07-04T08:59:13.417Z,42.81
2023-07-04T09:00:13.235Z,42.66
2023-07-04T09:01:13.333Z,42.47
2023-07-04T09:02:13.245Z,42.28
2023-07-04T09:03:13.410Z,42.51
2023-07-04T09:04:13.429Z,42.25
2023-07-04T09:05:13.432Z,42.21
2023-07-04T09:06:13.930Z,42.10
2023-07-04T09:07:13.507Z,41.85
2023-07-04T09:08:13.545Z,42.08
2023-07-04T09:09:13.612Z,41.88
2023-07-04T09:10:13.680Z,41.95
2023-07-04T09:11:13.731Z,42.03
2023-07-04T09:12:13.756Z,42.18
2023-07-04T09:13:13.862Z,42.23
2023-07-04T09:14:13.814Z,42.20
2023-07-04T09:15:13.845Z,42.18
2023-07-04T09:16:14.041Z,42.23
2023-07-04T09:17:13.888Z,42.16
2023-07-04T09:18:22.270Z,42.21
2023-07-04T09:19:13.868Z,42.23
2023-07-04T09:20:13.861Z,42.30
2023-07-04T09:21:13.948Z,42.13
2023-07-04T09:22:13.843Z,42.35
2023-07-04T09:23:13.856Z,42.27
2023-07-04T09:24:13.845Z,42.28
2023-07-04T09:25:13.829Z,42.35
2023-07-04T09:26:13.833Z,42.29
2023-07-04T09:27:13.813Z,42.39
2023-07-04T09:28:13.810Z,42.42
2023-07-04T09:29:13.816Z,42.31
2023-07-04T09:30:13.820Z,42.31
2023-07-04T09:31:13.841Z,42.15
2023-07-04T09:32:13.788Z,42.22
2023-07-04T09:33:13.812Z,42.24
2023-07-04T09:34:13.940Z,42.23
2023-07-04T09:35:13.761Z,42.19
2023-07-04T09:36:13.754Z,42.17
2023-07-04T09:37:13.746Z,42.21
2023-07-04T09:38:13.761Z,42.07
2023-07-04T09:39:13.735Z,42.17
2023-07-04T09:40:13.821Z,42.14
2023-07-04T09:41:13.845Z,42.12
2023-07-04T09:42:23.485Z,42.17
2023-07-04T09:43:13.704Z,42.19
2023-07-04T09:44:13.703Z,42.23
2023-07-04T09:45:13.710Z,42.20
2023-07-04T09:46:13.757Z,42.13
2023-07-04T09:47:13.686Z,42.13
2023-07-04T09:48:13.688Z,42.08
2023-07-04T09:49:13.698Z,42.05
2023-07-04T09:50:13.961Z,41.99
2023-07-04T09:51:13.653Z,41.99
2023-07-04T09:52:13.653Z,41.96
2023-07-04T09:53:13.671Z,41.96
2023-07-04T09:54:13.668Z,41.92
2023-07-04T09:55:13.626Z,41.85
2023-07-04T09:56:13.612Z,41.86
2023-07-04T09:57:13.613Z,41.84
2023-07-04T09:58:13.605Z,41.80
2023-07-04T09:59:13.620Z,41.75
2023-07-04T10:00:13.591Z,41.76
2023-07-04T10:01:13.650Z,41.73
2023-07-04T10:02:13.606Z,41.72
2023-07-04T10:03:13.671Z,41.72
2023-07-04T10:04:13.555Z,41.69
2023-07-04T10:05:13.637Z,41.66
2023-07-04T10:06:13.548Z,41.62
2023-07-04T10:07:13.560Z,41.63
2023-07-04T10:08:13.530Z,41.59
2023-07-04T10:10:12.544Z,41.56
2023-07-04T10:11:13.499Z,41.52
2023-07-04T10:12:13.528Z,41.52
2023-07-04T10:13:13.562Z,41.52
2023-07-04T10:14:13.520Z,41.53
2023-07-04T10:15:13.474Z,41.51
2023-07-04T10:16:13.464Z,41.50
2023-07-04T10:17:13.511Z,41.49
2023-07-04T10:18:13.519Z,41.43
2023-07-04T10:19:13.494Z,41.44
2023-07-04T10:20:13.525Z,41.44
2023-07-04T10:21:13.461Z,41.40
2023-07-04T10:22:13.425Z,41.39
2023-07-04T10:23:13.425Z,41.39
2023-07-04T10:24:13.414Z,41.40
2023-07-04T10:25:13.408Z,41.36
2023-07-04T10:26:13.390Z,41.36
2023-07-04T10:27:13.388Z,41.35
2023-07-04T10:28:13.377Z,41.34
2023-07-04T10:29:13.372Z,41.34
2023-07-04T10:30:13.376Z,41.32
2023-07-04T10:31:13.455Z,41.33
2023-07-04T10:32:13.346Z,41.31
2023-07-04T10:33:13.339Z,41.29
2023-07-04T10:34:13.329Z,41.28
2023-07-04T10:35:13.331Z,41.29
2023-07-04T10:36:13.317Z,41.32
2023-07-04T10:37:13.337Z,41.33
2023-07-04T10:38:13.321Z,41.29
2023-07-04T10:39:13.306Z,41.29
2023-07-04T10:40:13.310Z,41.29
2023-07-04T10:41:13.288Z,41.28
2023-07-04T10:42:13.284Z,41.27
2023-07-04T10:43:13.284Z,41.28
2023-07-04T10:44:13.274Z,41.28
2023-07-04T10:45:13.283Z,41.26
2023-07-04T10:46:13.271Z,41.24
2023-07-04T10:47:13.270Z,41.22
2023-07-04T10:48:13.286Z,41.24
2023-07-04T10:49:13.234Z,41.23
2023-07-04T10:50:13.254Z,41.21
2023-07-04T10:51:13.223Z,41.20
2023-07-04T10:52:13.241Z,41.20
2023-07-04T10:53:14.340Z,41.21
2023-07-04T10:54:13.202Z,41.22
2023-07-04T10:55:13.195Z,41.19
2023-07-04T10:56:13.191Z,41.17
2023-07-04T10:57:13.174Z,41.17
2023-07-04T10:58:13.177Z,41.20
2023-07-04T10:59:13.164Z,41.14
2023-07-04T11:00:13.158Z,41.15
2023-07-04T11:01:13.171Z,41.14
2023-07-04T11:02:13.151Z,41.12
2023-07-04T11:03:14.020Z,41.12
2023-07-04T11:04:13.123Z,41.12
2023-07-04T11:05:13.140Z,41.10
2023-07-04T11:06:13.115Z,41.13
2023-07-04T11:07:13.121Z,41.12
2023-07-04T11:08:13.102Z,41.09
2023-07-04T11:09:13.177Z,41.09
2023-07-04T11:10:13.089Z,41.06
2023-07-04T11:11:14.593Z,41.08
2023-07-04T11:12:13.070Z,41.07
2023-07-04T11:13:13.091Z,41.07
2023-07-04T11:14:13.060Z,41.05
2023-07-04T11:15:13.066Z,41.05
2023-07-04T11:16:13.089Z,41.04
2023-07-04T11:17:13.501Z,41.02
2023-07-04T11:18:13.034Z,41.03
2023-07-04T11:19:13.030Z,41.05
2023-07-04T11:20:13.033Z,41.02
2023-07-04T11:21:13.071Z,40.99
2023-07-04T11:22:13.005Z,41.02
2023-07-04T11:23:13.007Z,41.02
2023-07-04T11:24:12.994Z,41.02
2023-07-04T11:25:13.011Z,40.99
2023-07-04T11:26:12.973Z,40.97
2023-07-04T11:27:12.965Z,40.98
2023-07-04T11:28:12.978Z,40.99
2023-07-04T11:29:13.072Z,40.98
2023-07-04T11:30:12.984Z,40.98
2023-07-04T11:31:13.126Z,40.94
2023-07-04T11:32:13.007Z,40.96
2023-07-04T11:33:13.027Z,40.94
2023-07-04T11:34:12.975Z,40.93
2023-07-04T11:35:12.943Z,40.96
2023-07-04T11:36:12.970Z,40.93
2023-07-04T11:37:12.919Z,40.93
2023-07-04T11:38:12.885Z,40.94
2023-07-04T11:39:12.897Z,40.94
2023-07-04T11:40:13.077Z,40.93
2023-07-04T11:41:12.932Z,40.91
2023-07-04T11:42:13.076Z,40.91
2023-07-04T11:43:12.884Z,40.92
2023-07-04T11:44:12.953Z,40.93
2023-07-04T11:45:12.975Z,40.87
2023-07-04T11:46:12.983Z,40.89
2023-07-04T11:47:12.838Z,40.88
2023-07-04T11:48:12.921Z,40.87
2023-07-04T11:49:12.932Z,40.85
2023-07-04T11:50:12.852Z,40.84
2023-07-04T11:51:12.818Z,40.86
2023-07-04T11:52:12.944Z,40.83
2023-07-04T11:53:12.818Z,40.85
2023-07-04T11:54:12.799Z,40.84
2023-07-04T11:55:12.782Z,40.84
2023-07-04T11:56:12.774Z,40.81
2023-07-04T11:57:16.841Z,40.81
2023-07-04T11:58:12.960Z,40.82
2023-07-04T11:59:13.018Z,40.81
2023-07-04T12:00:13.059Z,40.80
2023-07-04T12:01:13.111Z,40.79
2023-07-04T12:02:13.196Z,40.79
2023-07-04T12:03:13.299Z,40.77
2023-07-04T12:04:14.352Z,40.77
2023-07-04T12:05:13.342Z,40.77
2023-07-04T12:06:13.396Z,40.74
2023-07-04T12:07:13.462Z,40.76
2023-07-04T12:08:13.529Z,40.74
2023-07-04T12:09:13.587Z,40.73
2023-07-04T12:10:13.727Z,40.72
2023-07-04T12:11:13.711Z,40.74
2023-07-04T12:12:13.778Z,40.75
2023-07-04T12:13:13.873Z,40.71
2023-07-04T12:14:13.961Z,40.72
2023-07-04T12:15:13.976Z,40.71
2023-07-04T12:16:14.051Z,40.69
2023-07-04T12:17:14.073Z,40.69
2023-07-04T12:18:14.142Z,40.69
2023-07-04T12:19:14.251Z,40.69
2023-07-04T12:20:14.263Z,40.67
2023-07-04T12:21:14.322Z,40.68
2023-07-04T12:22:14.382Z,40.64
2023-07-04T12:23:14.433Z,40.65
2023-07-04T12:24:14.539Z,40.63
2023-07-04T12:25:14.550Z,40.68
2023-07-04T12:26:14.601Z,40.67
2023-07-04T12:27:14.681Z,40.70
2023-07-04T12:28:14.727Z,40.70
2023-07-04T12:29:17.774Z,40.71
2023-07-04T12:30:14.788Z,40.71
2023-07-04T12:31:42.001Z,40.73
2023-07-04T12:32:14.797Z,40.74
2023-07-04T12:33:14.806Z,40.75
2023-07-04T12:35:14.774Z,40.78
2023-07-04T12:36:14.745Z,40.82
2023-07-04T12:37:14.733Z,40.83
2023-07-04T12:38:14.727Z,40.83
2023-07-04T12:39:14.717Z,40.86
2023-07-04T12:40:14.806Z,40.88
2023-07-04T12:41:14.710Z,40.88
2023-07-04T12:42:14.696Z,40.88
2023-07-04T12:45:13.704Z,40.94
2023-07-04T12:47:17.806Z,40.98
2023-07-04T12:50:13.787Z,41.01
2023-07-04T12:51:14.792Z,40.99
2023-07-04T12:52:14.628Z,41.02
2023-07-04T12:53:14.621Z,41.04
2023-07-04T12:54:14.611Z,41.04
2023-07-04T12:55:14.608Z,41.06
2023-07-04T12:56:14.596Z,41.10
2023-07-04T12:57:14.587Z,41.08
2023-07-04T12:58:14.585Z,41.08
2023-07-04T12:59:14.592Z,41.10
2023-07-04T13:00:14.616Z,41.14
2023-07-04T13:01:14.611Z,41.12